sensor_id;sensor_type;location;lat;lon;timestamp;temperature;humidity
44537;DHT22;30245;51.966;6.292;2023-09-18T00:00:45;26.10;61.20
44537;DHT22;30245;51.966;6.292;2023-09-18T00:03:11;26.10;61.20
44537;DHT22;30245;51.966;6.292;2023-09-18T00:05:36;26.00;61.20
44537;DHT22;30245;51.966;6.292;2023-09-18T00:08:02;26.10;61.30
44537;DHT22;30245;51.966;6.292;2023-09-18T00:10:28;26.10;61.20
44537;DHT22;30245;51.966;6.292;2023-09-18T00:12:57;26.00;61.20
44537;DHT22;30245;51.966;6.292;2023-09-18T00:15:24;26.10;61.20
44537;DHT22;30245;51.966;6.292;2023-09-18T00:17:49;26.00;61.20
44537;DHT22;30245;51.966;6.292;2023-09-18T00:20:15;26.00;61.30
44537;DHT22;30245;51.966;6.292;2023-09-18T00:22:43;25.90;61.30
44537;DHT22;30245;51.966;6.292;2023-09-18T00:25:08;26.00;61.40
44537;DHT22;30245;51.966;6.292;2023-09-18T00:27:34;26.00;61.30
44537;DHT22;30245;51.966;6.292;2023-09-18T00:30:03;26.00;61.30
44537;DHT22;30245;51.966;6.292;2023-09-18T00:32:29;26.00;61.30
44537;DHT22;30245;51.966;6.292;2023-09-18T00:34:55;26.00;61.40
44537;DHT22;30245;51.966;6.292;2023-09-18T00:37:20;25.90;61.30
44537;DHT22;30245;51.966;6.292;2023-09-18T00:39:46;26.00;61.40
44537;DHT22;30245;51.966;6.292;2023-09-18T00:42:11;25.90;61.30
44537;DHT22;30245;51.966;6.292;2023-09-18T00:44:43;25.90;61.40
44537;DHT22;30245;51.966;6.292;2023-09-18T00:47:09;25.90;61.30
44537;DHT22;30245;51.966;6.292;2023-09-18T00:49:36;25.90;61.50
44537;DHT22;30245;51.966;6.292;2023-09-18T00:52:04;25.90;61.40
44537;DHT22;30245;51.966;6.292;2023-09-18T00:54:30;25.90;61.40
44537;DHT22;30245;51.966;6.292;2023-09-18T00:56:57;25.90;61.40
44537;DHT22;30245;51.966;6.292;2023-09-18T00:59:23;25.90;61.40
44537;DHT22;30245;51.966;6.292;2023-09-18T01:01:49;25.80;61.40
44537;DHT22;30245;51.966;6.292;2023-09-18T01:04:19;25.80;61.40
44537;DHT22;30245;51.966;6.292;2023-09-18T01:06:45;25.80;61.50
44537;DHT22;30245;51.966;6.292;2023-09-18T01:09:12;25.70;61.50
44537;DHT22;30245;51.966;6.292;2023-09-18T01:11:42;25.70;61.60
44537;DHT22;30245;51.966;6.292;2023-09-18T01:16:56;25.70;61.70
44537;DHT22;30245;51.966;6.292;2023-09-18T01:19:41;25.70;61.70
44537;DHT22;30245;51.966;6.292;2023-09-18T01:22:08;25.70;61.70
44537;DHT22;30245;51.966;6.292;2023-09-18T01:24:36;25.70;61.70
44537;DHT22;30245;51.966;6.292;2023-09-18T01:27:02;25.70;61.60
44537;DHT22;30245;51.966;6.292;2023-09-18T01:29:31;25.70;61.60
44537;DHT22;30245;51.966;6.292;2023-09-18T01:31:57;25.70;61.60
44537;DHT22;30245;51.966;6.292;2023-09-18T01:34:31;25.70;61.70
44537;DHT22;30245;51.966;6.292;2023-09-18T01:36:59;25.70;61.70
44537;DHT22;30245;51.966;6.292;2023-09-18T01:39:27;25.70;61.70
44537;DHT22;30245;51.966;6.292;2023-09-18T01:41:58;25.60;61.70
44537;DHT22;30245;51.966;6.292;2023-09-18T01:44:23;25.60;61.80
44537;DHT22;30245;51.966;6.292;2023-09-18T01:46:49;25.60;61.80
44537;DHT22;30245;51.966;6.292;2023-09-18T01:49:25;25.60;61.80
44537;DHT22;30245;51.966;6.292;2023-09-18T01:51:51;25.60;61.80
44537;DHT22;30245;51.966;6.292;2023-09-18T01:54:17;25.60;61.90
44537;DHT22;30245;51.966;6.292;2023-09-18T01:56:43;25.60;61.90
44537;DHT22;30245;51.966;6.292;2023-09-18T01:59:08;25.60;62.00
44537;DHT22;30245;51.966;6.292;2023-09-18T02:01:35;25.60;62.00
44537;DHT22;30245;51.966;6.292;2023-09-18T02:04:00;25.60;62.00
44537;DHT22;30245;51.966;6.292;2023-09-18T02:06:26;25.60;62.00
44537;DHT22;30245;51.966;6.292;2023-09-18T02:08:51;25.60;61.90
44537;DHT22;30245;51.966;6.292;2023-09-18T02:11:18;25.60;62.00
44537;DHT22;30245;51.966;6.292;2023-09-18T02:13:44;25.60;62.00
44537;DHT22;30245;51.966;6.292;2023-09-18T02:16:09;25.60;62.00
44537;DHT22;30245;51.966;6.292;2023-09-18T02:18:35;25.60;62.10
44537;DHT22;30245;51.966;6.292;2023-09-18T02:21:01;25.60;62.40
44537;DHT22;30245;51.966;6.292;2023-09-18T02:23:26;25.50;62.30
44537;DHT22;30245;51.966;6.292;2023-09-18T02:25:56;25.60;62.30
44537;DHT22;30245;51.966;6.292;2023-09-18T02:28:22;25.60;62.30
44537;DHT22;30245;51.966;6.292;2023-09-18T02:30:47;25.50;62.20
44537;DHT22;30245;51.966;6.292;2023-09-18T02:33:13;25.50;62.30
44537;DHT22;30245;51.966;6.292;2023-09-18T02:35:40;25.50;62.40
44537;DHT22;30245;51.966;6.292;2023-09-18T02:38:06;25.50;62.40
44537;DHT22;30245;51.966;6.292;2023-09-18T02:40:31;25.50;62.40
44537;DHT22;30245;51.966;6.292;2023-09-18T02:42:57;25.50;62.40
44537;DHT22;30245;51.966;6.292;2023-09-18T02:45:22;25.50;62.40
44537;DHT22;30245;51.966;6.292;2023-09-18T02:47:48;25.60;62.30
44537;DHT22;30245;51.966;6.292;2023-09-18T02:50:14;25.60;62.20
44537;DHT22;30245;51.966;6.292;2023-09-18T02:52:39;25.60;62.10
44537;DHT22;30245;51.966;6.292;2023-09-18T02:55:05;25.70;62.10
44537;DHT22;30245;51.966;6.292;2023-09-18T02:57:31;25.70;62.00
44537;DHT22;30245;51.966;6.292;2023-09-18T02:59:56;25.70;61.90
44537;DHT22;30245;51.966;6.292;2023-09-18T03:02:22;25.70;62.00
44537;DHT22;30245;51.966;6.292;2023-09-18T03:04:47;25.70;62.00
44537;DHT22;30245;51.966;6.292;2023-09-18T03:07:13;25.70;61.90
44537;DHT22;30245;51.966;6.292;2023-09-18T03:09:39;25.80;61.80
44537;DHT22;30245;51.966;6.292;2023-09-18T03:12:05;25.80;61.60
44537;DHT22;30245;51.966;6.292;2023-09-18T03:14:30;25.80;61.60
44537;DHT22;30245;51.966;6.292;2023-09-18T03:16:56;25.90;61.60
44537;DHT22;30245;51.966;6.292;2023-09-18T03:19:21;25.80;61.50
44537;DHT22;30245;51.966;6.292;2023-09-18T03:21:49;25.90;61.50
44537;DHT22;30245;51.966;6.292;2023-09-18T03:24:15;25.80;61.40
44537;DHT22;30245;51.966;6.292;2023-09-18T03:26:40;25.80;61.30
44537;DHT22;30245;51.966;6.292;2023-09-18T03:29:06;25.90;61.30
44537;DHT22;30245;51.966;6.292;2023-09-18T03:31:31;25.90;61.30
44537;DHT22;30245;51.966;6.292;2023-09-18T03:33:57;25.90;61.20
44537;DHT22;30245;51.966;6.292;2023-09-18T03:36:23;25.90;61.30
44537;DHT22;30245;51.966;6.292;2023-09-18T03:38:51;25.80;61.20
44537;DHT22;30245;51.966;6.292;2023-09-18T03:41:16;25.90;61.40
44537;DHT22;30245;51.966;6.292;2023-09-18T03:43:42;25.80;61.30
44537;DHT22;30245;51.966;6.292;2023-09-18T03:46:08;25.80;61.40
44537;DHT22;30245;51.966;6.292;2023-09-18T03:48:34;25.90;61.30
44537;DHT22;30245;51.966;6.292;2023-09-18T03:51:04;25.90;61.20
44537;DHT22;30245;51.966;6.292;2023-09-18T03:53:30;25.90;61.10
44537;DHT22;30245;51.966;6.292;2023-09-18T03:55:55;25.90;61.00
44537;DHT22;30245;51.966;6.292;2023-09-18T03:58:21;25.90;61.00
44537;DHT22;30245;51.966;6.292;2023-09-18T04:00:46;25.90;61.00
44537;DHT22;30245;51.966;6.292;2023-09-18T04:03:12;25.90;61.00
44537;DHT22;30245;51.966;6.292;2023-09-18T04:05:38;25.90;61.00
44537;DHT22;30245;51.966;6.292;2023-09-18T04:08:03;25.80;61.10
44537;DHT22;30245;51.966;6.292;2023-09-18T04:10:29;25.80;61.20
44537;DHT22;30245;51.966;6.292;2023-09-18T04:12:54;25.80;61.30
44537;DHT22;30245;51.966;6.292;2023-09-18T04:15:20;25.80;61.40
44537;DHT22;30245;51.966;6.292;2023-09-18T04:17:47;25.80;61.30
44537;DHT22;30245;51.966;6.292;2023-09-18T04:20:13;25.80;61.20
44537;DHT22;30245;51.966;6.292;2023-09-18T04:22:43;25.80;61.30
44537;DHT22;30245;51.966;6.292;2023-09-18T04:25:09;25.70;61.40
44537;DHT22;30245;51.966;6.292;2023-09-18T04:27:34;25.80;61.50
44537;DHT22;30245;51.966;6.292;2023-09-18T04:30:00;25.80;61.30
44537;DHT22;30245;51.966;6.292;2023-09-18T04:32:27;25.80;61.40
44537;DHT22;30245;51.966;6.292;2023-09-18T04:34:54;25.80;61.50
44537;DHT22;30245;51.966;6.292;2023-09-18T04:37:20;25.70;61.60
44537;DHT22;30245;51.966;6.292;2023-09-18T04:39:45;25.70;61.70
44537;DHT22;30245;51.966;6.292;2023-09-18T04:42:11;25.70;61.90
44537;DHT22;30245;51.966;6.292;2023-09-18T04:44:36;25.70;62.00
44537;DHT22;30245;51.966;6.292;2023-09-18T04:47:02;25.70;61.90
44537;DHT22;30245;51.966;6.292;2023-09-18T04:49:28;25.70;62.00
44537;DHT22;30245;51.966;6.292;2023-09-18T04:51:55;25.80;61.90
44537;DHT22;30245;51.966;6.292;2023-09-18T04:54:20;25.80;62.00
44537;DHT22;30245;51.966;6.292;2023-09-18T04:56:46;25.80;62.00
44537;DHT22;30245;51.966;6.292;2023-09-18T04:59:11;25.80;61.90
44537;DHT22;30245;51.966;6.292;2023-09-18T05:01:37;25.80;61.90
44537;DHT22;30245;51.966;6.292;2023-09-18T05:04:03;25.80;61.90
44537;DHT22;30245;51.966;6.292;2023-09-18T05:06:28;25.80;62.00
44537;DHT22;30245;51.966;6.292;2023-09-18T05:08:54;25.80;61.90
44537;DHT22;30245;51.966;6.292;2023-09-18T05:11:20;25.90;61.80
44537;DHT22;30245;51.966;6.292;2023-09-18T05:13:46;26.00;61.70
44537;DHT22;30245;51.966;6.292;2023-09-18T05:16:11;26.00;62.20
44537;DHT22;30245;51.966;6.292;2023-09-18T05:18:37;25.90;61.70
44537;DHT22;30245;51.966;6.292;2023-09-18T05:21:03;25.90;61.80
44537;DHT22;30245;51.966;6.292;2023-09-18T05:23:30;26.00;61.90
44537;DHT22;30245;51.966;6.292;2023-09-18T05:28:59;25.90;61.90
44537;DHT22;30245;51.966;6.292;2023-09-18T05:31:24;25.90;62.00
44537;DHT22;30245;51.966;6.292;2023-09-18T05:33:50;25.90;62.00
44537;DHT22;30245;51.966;6.292;2023-09-18T05:36:16;25.90;62.50
44537;DHT22;30245;51.966;6.292;2023-09-18T05:38:42;26.00;61.80
44537;DHT22;30245;51.966;6.292;2023-09-18T05:41:10;25.90;61.80
44537;DHT22;30245;51.966;6.292;2023-09-18T05:43:36;25.90;62.00
44537;DHT22;30245;51.966;6.292;2023-09-18T05:46:02;25.80;62.30
44537;DHT22;30245;51.966;6.292;2023-09-18T05:48:28;25.80;62.50
44537;DHT22;30245;51.966;6.292;2023-09-18T05:50:53;25.80;62.50
44537;DHT22;30245;51.966;6.292;2023-09-18T05:53:20;25.80;62.50
44537;DHT22;30245;51.966;6.292;2023-09-18T05:55:47;25.80;62.60
44537;DHT22;30245;51.966;6.292;2023-09-18T05:58:12;25.80;62.60
44537;DHT22;30245;51.966;6.292;2023-09-18T06:00:39;25.80;62.50
44537;DHT22;30245;51.966;6.292;2023-09-18T06:03:05;25.90;62.40
44537;DHT22;30245;51.966;6.292;2023-09-18T06:05:31;25.90;62.40
44537;DHT22;30245;51.966;6.292;2023-09-18T06:07:59;25.80;62.40
44537;DHT22;30245;51.966;6.292;2023-09-18T06:10:25;25.90;62.40
44537;DHT22;30245;51.966;6.292;2023-09-18T06:12:50;25.90;62.40
44537;DHT22;30245;51.966;6.292;2023-09-18T06:15:16;25.80;62.30
44537;DHT22;30245;51.966;6.292;2023-09-18T06:17:43;25.80;62.40
44537;DHT22;30245;51.966;6.292;2023-09-18T06:20:09;25.70;62.80
44537;DHT22;30245;51.966;6.292;2023-09-18T06:22:39;25.60;63.10
44537;DHT22;30245;51.966;6.292;2023-09-18T06:25:06;25.60;63.50
44537;DHT22;30245;51.966;6.292;2023-09-18T06:27:36;25.60;63.60
44537;DHT22;30245;51.966;6.292;2023-09-18T06:30:03;25.50;63.70
44537;DHT22;30245;51.966;6.292;2023-09-18T06:32:29;25.40;64.00
44537;DHT22;30245;51.966;6.292;2023-09-18T06:34:55;25.40;64.00
44537;DHT22;30245;51.966;6.292;2023-09-18T06:37:22;25.50;64.00
44537;DHT22;30245;51.966;6.292;2023-09-18T06:39:48;25.50;64.00
44537;DHT22;30245;51.966;6.292;2023-09-18T06:42:14;25.50;63.90
44537;DHT22;30245;51.966;6.292;2023-09-18T06:44:39;25.60;63.90
44537;DHT22;30245;51.966;6.292;2023-09-18T06:47:05;25.60;63.70
44537;DHT22;30245;51.966;6.292;2023-09-18T06:49:30;25.60;63.50
44537;DHT22;30245;51.966;6.292;2023-09-18T06:51:56;25.60;63.60
44537;DHT22;30245;51.966;6.292;2023-09-18T06:54:22;25.60;63.60
44537;DHT22;30245;51.966;6.292;2023-09-18T06:56:47;25.50;63.80
44537;DHT22;30245;51.966;6.292;2023-09-18T06:59:13;25.50;63.80
44537;DHT22;30245;51.966;6.292;2023-09-18T07:01:39;25.60;63.70
44537;DHT22;30245;51.966;6.292;2023-09-18T07:04:06;25.60;63.50
44537;DHT22;30245;51.966;6.292;2023-09-18T07:06:32;25.70;63.30
44537;DHT22;30245;51.966;6.292;2023-09-18T07:08:57;25.80;63.20
44537;DHT22;30245;51.966;6.292;2023-09-18T07:11:23;25.70;63.10
44537;DHT22;30245;51.966;6.292;2023-09-18T07:13:48;25.70;63.10
44537;DHT22;30245;51.966;6.292;2023-09-18T07:16:14;25.80;63.20
44537;DHT22;30245;51.966;6.292;2023-09-18T07:18:39;25.70;63.10
44537;DHT22;30245;51.966;6.292;2023-09-18T07:21:05;25.80;63.70
44537;DHT22;30245;51.966;6.292;2023-09-18T07:23:31;25.80;62.90
44537;DHT22;30245;51.966;6.292;2023-09-18T07:25:56;25.80;62.90
44537;DHT22;30245;51.966;6.292;2023-09-18T07:28:24;25.70;62.90
44537;DHT22;30245;51.966;6.292;2023-09-18T07:30:50;25.60;63.20
44537;DHT22;30245;51.966;6.292;2023-09-18T07:33:15;25.50;63.20
44537;DHT22;30245;51.966;6.292;2023-09-18T07:35:49;25.40;63.40
44537;DHT22;30245;51.966;6.292;2023-09-18T07:38:17;25.40;63.40
44537;DHT22;30245;51.966;6.292;2023-09-18T07:40:44;25.40;63.50
44537;DHT22;30245;51.966;6.292;2023-09-18T07:43:11;25.40;63.40
44537;DHT22;30245;51.966;6.292;2023-09-18T07:45:38;25.40;64.00
44537;DHT22;30245;51.966;6.292;2023-09-18T07:48:06;25.40;63.40
44537;DHT22;30245;51.966;6.292;2023-09-18T07:50:31;25.50;63.30
44537;DHT22;30245;51.966;6.292;2023-09-18T07:52:59;25.60;63.00
44537;DHT22;30245;51.966;6.292;2023-09-18T07:55:24;25.60;62.70
44537;DHT22;30245;51.966;6.292;2023-09-18T07:57:51;25.70;62.60
44537;DHT22;30245;51.966;6.292;2023-09-18T08:00:17;25.80;62.40
44537;DHT22;30245;51.966;6.292;2023-09-18T08:02:44;25.90;62.20
44537;DHT22;30245;51.966;6.292;2023-09-18T08:05:09;25.90;62.00
44537;DHT22;30245;51.966;6.292;2023-09-18T08:07:36;25.80;62.20
44537;DHT22;30245;51.966;6.292;2023-09-18T08:10:03;25.70;62.30
44537;DHT22;30245;51.966;6.292;2023-09-18T08:12:32;25.80;62.10
44537;DHT22;30245;51.966;6.292;2023-09-18T08:14:58;25.80;62.10
44537;DHT22;30245;51.966;6.292;2023-09-18T08:17:24;25.80;62.00
44537;DHT22;30245;51.966;6.292;2023-09-18T08:19:53;25.80;61.80
44537;DHT22;30245;51.966;6.292;2023-09-18T08:22:20;25.80;61.40
44537;DHT22;30245;51.966;6.292;2023-09-18T08:24:47;25.80;61.50
44537;DHT22;30245;51.966;6.292;2023-09-18T08:27:14;25.70;61.50
44537;DHT22;30245;51.966;6.292;2023-09-18T08:29:43;25.70;61.60
44537;DHT22;30245;51.966;6.292;2023-09-18T08:32:09;25.70;61.60
44537;DHT22;30245;51.966;6.292;2023-09-18T08:34:34;25.70;61.40
44537;DHT22;30245;51.966;6.292;2023-09-18T08:37:01;25.60;61.50
44537;DHT22;30245;51.966;6.292;2023-09-18T08:39:27;25.70;61.40
44537;DHT22;30245;51.966;6.292;2023-09-18T08:41:59;25.80;61.50
44537;DHT22;30245;51.966;6.292;2023-09-18T08:44:27;25.90;60.90
44537;DHT22;30245;51.966;6.292;2023-09-18T08:46:56;26.00;60.50
44537;DHT22;30245;51.966;6.292;2023-09-18T08:49:23;26.00;60.10
44537;DHT22;30245;51.966;6.292;2023-09-18T08:51:50;26.10;60.00
44537;DHT22;30245;51.966;6.292;2023-09-18T08:54:16;26.10;60.50
44537;DHT22;30245;51.966;6.292;2023-09-18T08:56:42;26.00;59.80
44537;DHT22;30245;51.966;6.292;2023-09-18T08:59:07;26.00;59.90
44537;DHT22;30245;51.966;6.292;2023-09-18T09:01:33;26.00;59.80
44537;DHT22;30245;51.966;6.292;2023-09-18T09:03:58;26.10;59.70
44537;DHT22;30245;51.966;6.292;2023-09-18T09:06:26;26.00;59.50
44537;DHT22;30245;51.966;6.292;2023-09-18T09:08:51;26.00;59.60
44537;DHT22;30245;51.966;6.292;2023-09-18T09:11:17;26.00;59.50
44537;DHT22;30245;51.966;6.292;2023-09-18T09:13:44;26.10;59.40
44537;DHT22;30245;51.966;6.292;2023-09-18T09:16:11;26.20;59.50
44537;DHT22;30245;51.966;6.292;2023-09-18T09:18:47;26.20;59.20
44537;DHT22;30245;51.966;6.292;2023-09-18T09:21:13;26.20;59.00
44537;DHT22;30245;51.966;6.292;2023-09-18T09:23:50;26.30;59.10
44537;DHT22;30245;51.966;6.292;2023-09-18T09:26:22;26.40;58.90
44537;DHT22;30245;51.966;6.292;2023-09-18T09:28:48;26.40;58.90
44537;DHT22;30245;51.966;6.292;2023-09-18T09:31:30;26.50;58.70
44537;DHT22;30245;51.966;6.292;2023-09-18T09:33:56;26.50;58.60
44537;DHT22;30245;51.966;6.292;2023-09-18T09:36:23;26.40;58.40
44537;DHT22;30245;51.966;6.292;2023-09-18T09:38:55;26.40;58.60
44537;DHT22;30245;51.966;6.292;2023-09-18T09:41:21;26.40;58.80
44537;DHT22;30245;51.966;6.292;2023-09-18T09:43:47;26.40;58.40
44537;DHT22;30245;51.966;6.292;2023-09-18T09:46:17;26.40;58.30
44537;DHT22;30245;51.966;6.292;2023-09-18T09:49:02;26.50;58.30
44537;DHT22;30245;51.966;6.292;2023-09-18T09:51:29;26.70;58.00
44537;DHT22;30245;51.966;6.292;2023-09-18T09:53:55;26.80;57.80
44537;DHT22;30245;51.966;6.292;2023-09-18T09:56:40;26.90;56.90
44537;DHT22;30245;51.966;6.292;2023-09-18T09:59:06;26.80;57.30
44537;DHT22;30245;51.966;6.292;2023-09-18T10:01:35;27.30;56.90
44537;DHT22;30245;51.966;6.292;2023-09-18T10:04:21;27.80;55.70
44537;DHT22;30245;51.966;6.292;2023-09-18T10:06:52;28.50;54.70
44537;DHT22;30245;51.966;6.292;2023-09-18T10:09:21;28.80;53.90
44537;DHT22;30245;51.966;6.292;2023-09-18T10:11:51;29.10;52.90
44537;DHT22;30245;51.966;6.292;2023-09-18T10:14:26;29.00;52.80
44537;DHT22;30245;51.966;6.292;2023-09-18T10:16:56;28.70;53.20
44537;DHT22;30245;51.966;6.292;2023-09-18T10:19:54;28.70;53.40
44537;DHT22;30245;51.966;6.292;2023-09-18T10:22:32;29.10;53.10
44537;DHT22;30245;51.966;6.292;2023-09-18T10:25:11;29.60;52.10
44537;DHT22;30245;51.966;6.292;2023-09-18T10:27:39;30.00;51.40
44537;DHT22;30245;51.966;6.292;2023-09-18T10:30:06;30.00;50.70
44537;DHT22;30245;51.966;6.292;2023-09-18T10:32:37;29.90;51.10
44537;DHT22;30245;51.966;6.292;2023-09-18T10:35:04;30.00;51.00
44537;DHT22;30245;51.966;6.292;2023-09-18T10:37:30;30.10;51.20
44537;DHT22;30245;51.966;6.292;2023-09-18T10:39:59;30.00;50.80
44537;DHT22;30245;51.966;6.292;2023-09-18T10:42:27;30.00;50.80
44537;DHT22;30245;51.966;6.292;2023-09-18T10:44:53;29.80;51.00
44537;DHT22;30245;51.966;6.292;2023-09-18T10:47:19;29.60;51.20
44537;DHT22;30245;51.966;6.292;2023-09-18T10:49:46;29.40;51.40
44537;DHT22;30245;51.966;6.292;2023-09-18T10:52:12;29.20;51.50
44537;DHT22;30245;51.966;6.292;2023-09-18T10:54:39;29.00;51.40
44537;DHT22;30245;51.966;6.292;2023-09-18T10:57:05;28.70;51.90
44537;DHT22;30245;51.966;6.292;2023-09-18T10:59:31;28.70;52.20
44537;DHT22;30245;51.966;6.292;2023-09-18T11:02:02;28.70;52.10
44537;DHT22;30245;51.966;6.292;2023-09-18T11:04:31;28.80;51.90
44537;DHT22;30245;51.966;6.292;2023-09-18T11:09:27;28.70;52.40
44537;DHT22;30245;51.966;6.292;2023-09-18T11:14:47;28.70;51.40
44537;DHT22;30245;51.966;6.292;2023-09-18T11:17:36;28.50;51.50
44537;DHT22;30245;51.966;6.292;2023-09-18T11:22:35;28.80;51.30
44537;DHT22;30245;51.966;6.292;2023-09-18T11:28:01;28.90;50.50
44537;DHT22;30245;51.966;6.292;2023-09-18T11:30:27;28.80;50.70
44537;DHT22;30245;51.966;6.292;2023-09-18T11:32:54;28.70;51.00
44537;DHT22;30245;51.966;6.292;2023-09-18T11:35:21;28.50;50.70
44537;DHT22;30245;51.966;6.292;2023-09-18T11:37:47;28.60;50.30
44537;DHT22;30245;51.966;6.292;2023-09-18T11:40:32;28.60;50.10
44537;DHT22;30245;51.966;6.292;2023-09-18T11:43:26;28.60;50.30
44537;DHT22;30245;51.966;6.292;2023-09-18T11:45:56;28.80;50.30
44537;DHT22;30245;51.966;6.292;2023-09-18T11:48:25;29.00;50.00
44537;DHT22;30245;51.966;6.292;2023-09-18T11:50:53;29.00;50.00
44537;DHT22;30245;51.966;6.292;2023-09-18T11:53:20;29.20;50.10
44537;DHT22;30245;51.966;6.292;2023-09-18T11:55:48;29.40;49.60
44537;DHT22;30245;51.966;6.292;2023-09-18T11:58:14;29.50;49.50
44537;DHT22;30245;51.966;6.292;2023-09-18T12:00:40;29.60;49.20
44537;DHT22;30245;51.966;6.292;2023-09-18T12:03:22;29.80;48.90
44537;DHT22;30245;51.966;6.292;2023-09-18T12:05:53;30.10;48.40
44537;DHT22;30245;51.966;6.292;2023-09-18T12:08:19;30.10;48.40
44537;DHT22;30245;51.966;6.292;2023-09-18T12:10:51;30.20;47.90
44537;DHT22;30245;51.966;6.292;2023-09-18T12:13:17;30.30;47.60
44537;DHT22;30245;51.966;6.292;2023-09-18T12:15:43;30.40;47.30
44537;DHT22;30245;51.966;6.292;2023-09-18T12:18:10;30.20;47.10
44537;DHT22;30245;51.966;6.292;2023-09-18T12:20:47;30.00;47.40
44537;DHT22;30245;51.966;6.292;2023-09-18T12:23:14;29.70;48.00
44537;DHT22;30245;51.966;6.292;2023-09-18T12:25:39;29.50;48.20
44537;DHT22;30245;51.966;6.292;2023-09-18T12:28:08;29.50;48.50
44537;DHT22;30245;51.966;6.292;2023-09-18T12:30:34;29.50;48.50
44537;DHT22;30245;51.966;6.292;2023-09-18T12:33:01;29.40;48.30
44537;DHT22;30245;51.966;6.292;2023-09-18T12:35:26;29.30;47.90
44537;DHT22;30245;51.966;6.292;2023-09-18T12:37:59;29.30;48.00
44537;DHT22;30245;51.966;6.292;2023-09-18T12:40:31;29.50;48.00
44537;DHT22;30245;51.966;6.292;2023-09-18T12:42:59;29.70;47.20
44537;DHT22;30245;51.966;6.292;2023-09-18T12:45:27;29.90;46.90
44537;DHT22;30245;51.966;6.292;2023-09-18T12:47:55;30.00;46.40
44537;DHT22;30245;51.966;6.292;2023-09-18T12:50:21;30.00;46.50
44537;DHT22;30245;51.966;6.292;2023-09-18T12:52:47;30.10;46.40
44537;DHT22;30245;51.966;6.292;2023-09-18T12:57:49;30.10;46.60
44537;DHT22;30245;51.966;6.292;2023-09-18T13:00:22;30.30;46.20
44537;DHT22;30245;51.966;6.292;2023-09-18T13:02:49;30.30;46.00
44537;DHT22;30245;51.966;6.292;2023-09-18T13:05:21;30.30;46.00
44537;DHT22;30245;51.966;6.292;2023-09-18T13:07:50;30.40;45.70
44537;DHT22;30245;51.966;6.292;2023-09-18T13:10:16;30.40;45.40
44537;DHT22;30245;51.966;6.292;2023-09-18T13:12:45;30.20;45.50
44537;DHT22;30245;51.966;6.292;2023-09-18T13:15:11;30.20;45.90
44537;DHT22;30245;51.966;6.292;2023-09-18T13:17:46;30.20;45.90
44537;DHT22;30245;51.966;6.292;2023-09-18T13:20:16;30.30;45.80
44537;DHT22;30245;51.966;6.292;2023-09-18T13:22:42;30.50;46.00
44537;DHT22;30245;51.966;6.292;2023-09-18T13:25:11;30.70;45.90
44537;DHT22;30245;51.966;6.292;2023-09-18T13:27:37;30.70;45.00
44537;DHT22;30245;51.966;6.292;2023-09-18T13:30:05;30.60;45.20
44537;DHT22;30245;51.966;6.292;2023-09-18T13:32:36;30.60;45.20
44537;DHT22;30245;51.966;6.292;2023-09-18T13:35:03;30.80;45.40
44537;DHT22;30245;51.966;6.292;2023-09-18T13:37:32;31.00;45.00
44537;DHT22;30245;51.966;6.292;2023-09-18T13:39:57;31.10;44.70
44537;DHT22;30245;51.966;6.292;2023-09-18T13:42:23;31.20;44.70
44537;DHT22;30245;51.966;6.292;2023-09-18T13:44:49;31.20;43.90
44537;DHT22;30245;51.966;6.292;2023-09-18T13:47:15;31.10;43.30
44537;DHT22;30245;51.966;6.292;2023-09-18T13:49:40;31.00;43.40
44537;DHT22;30245;51.966;6.292;2023-09-18T13:52:06;31.10;43.50
44537;DHT22;30245;51.966;6.292;2023-09-18T13:54:32;31.20;42.70
44537;DHT22;30245;51.966;6.292;2023-09-18T13:56:57;31.20;42.50
44537;DHT22;30245;51.966;6.292;2023-09-18T13:59:23;31.00;42.00
44537;DHT22;30245;51.966;6.292;2023-09-18T14:01:49;30.90;42.20
44537;DHT22;30245;51.966;6.292;2023-09-18T14:04:14;30.90;42.60
44537;DHT22;30245;51.966;6.292;2023-09-18T14:06:40;31.00;42.90
44537;DHT22;30245;51.966;6.292;2023-09-18T14:09:07;31.30;42.90
44537;DHT22;30245;51.966;6.292;2023-09-18T14:11:35;31.50;42.50
44537;DHT22;30245;51.966;6.292;2023-09-18T14:14:03;31.70;42.30
44537;DHT22;30245;51.966;6.292;2023-09-18T14:16:29;31.90;42.20
44537;DHT22;30245;51.966;6.292;2023-09-18T14:18:58;32.00;42.00
44537;DHT22;30245;51.966;6.292;2023-09-18T14:21:24;32.10;42.10
44537;DHT22;30245;51.966;6.292;2023-09-18T14:23:50;32.30;42.10
44537;DHT22;30245;51.966;6.292;2023-09-18T14:26:15;32.50;41.70
44537;DHT22;30245;51.966;6.292;2023-09-18T14:28:41;32.60;41.30
44537;DHT22;30245;51.966;6.292;2023-09-18T14:31:10;32.60;41.10
44537;DHT22;30245;51.966;6.292;2023-09-18T14:33:35;32.40;41.20
44537;DHT22;30245;51.966;6.292;2023-09-18T14:36:01;32.10;41.40
44537;DHT22;30245;51.966;6.292;2023-09-18T14:38:29;31.90;41.00
44537;DHT22;30245;51.966;6.292;2023-09-18T14:40:54;31.80;41.30
44537;DHT22;30245;51.966;6.292;2023-09-18T14:43:26;31.50;41.20
44537;DHT22;30245;51.966;6.292;2023-09-18T14:45:52;31.50;41.60
44537;DHT22;30245;51.966;6.292;2023-09-18T14:48:18;31.80;41.30
44537;DHT22;30245;51.966;6.292;2023-09-18T14:50:44;32.00;40.40
44537;DHT22;30245;51.966;6.292;2023-09-18T14:53:10;32.20;39.90
44537;DHT22;30245;51.966;6.292;2023-09-18T14:55:35;32.30;39.50
44537;DHT22;30245;51.966;6.292;2023-09-18T14:58:01;32.70;39.40
44537;DHT22;30245;51.966;6.292;2023-09-18T15:00:27;33.30;38.70
44537;DHT22;30245;51.966;6.292;2023-09-18T15:02:52;33.60;38.10
44537;DHT22;30245;51.966;6.292;2023-09-18T15:05:18;33.60;37.80
44537;DHT22;30245;51.966;6.292;2023-09-18T15:07:43;33.50;37.80
44537;DHT22;30245;51.966;6.292;2023-09-18T15:10:09;33.10;38.10
44537;DHT22;30245;51.966;6.292;2023-09-18T15:12:35;32.90;38.70
44537;DHT22;30245;51.966;6.292;2023-09-18T15:15:01;32.80;38.80
44537;DHT22;30245;51.966;6.292;2023-09-18T15:17:26;32.60;38.80
44537;DHT22;30245;51.966;6.292;2023-09-18T15:19:52;32.10;38.70
44537;DHT22;30245;51.966;6.292;2023-09-18T15:22:21;31.70;39.20
44537;DHT22;30245;51.966;6.292;2023-09-18T15:24:47;31.30;39.40
44537;DHT22;30245;51.966;6.292;2023-09-18T15:27:13;31.00;39.80
44537;DHT22;30245;51.966;6.292;2023-09-18T15:29:38;30.60;40.40
44537;DHT22;30245;51.966;6.292;2023-09-18T15:32:04;30.50;40.50
44537;DHT22;30245;51.966;6.292;2023-09-18T15:34:30;30.30;40.70
44537;DHT22;30245;51.966;6.292;2023-09-18T15:36:55;30.10;40.90
44537;DHT22;30245;51.966;6.292;2023-09-18T15:39:21;30.00;41.00
44537;DHT22;30245;51.966;6.292;2023-09-18T15:41:47;29.80;41.40
44537;DHT22;30245;51.966;6.292;2023-09-18T15:44:13;29.60;41.60
44537;DHT22;30245;51.966;6.292;2023-09-18T15:46:39;29.40;41.90
44537;DHT22;30245;51.966;6.292;2023-09-18T15:49:05;29.40;42.20